KOWP

William R Pogue Municipal Airport

Sand Springs, Oklahoma, USA
METAR KOWP 161755Z AUTO 14006KT 10SM OVC023 10/05 A3013 RMK AO2 T00950053 10095 20071
Observed Flight Rules
Jan-16 @ 17:55 UTC (32 minutes ago) Marginal Visual Flight Rules
Wind Visibility Clouds
140° at 6 knots 10 miles
  • Overcast at 2,300' AGL
Temperatures Readings
Current 10°C / 50°F
Dewpoint 5°C / 41°F
Humidity 71%
Altimeter 30.13" Hg
Pressure 1020.32 hPa
Elevation 272
METAR KOWP 161755Z AUTO 14006KT 10SM OVC023 10/05 A3013 RMK AO2 T00950053 10095 20071
Observed Flight Rules
Jan-16 @ 17:55 UTC
(32 minutes ago)
MVFR
Wind Visibility
140° at 6 knots 10 miles
Clouds
  • Overcast at 2,300' AGL
Temperature Dewpoint
10°C / 50°F 5°C / 41°F
Humidity Altimeter Pressure
71% 30.13" Hg 1020.32 hPa